sensor_id;sensor_type;location;lat;lon;timestamp;P1;durP1;ratioP1;P2;durP2;ratioP2
76795;SDS011;65745;50.278;18.192;2023-05-10T00:01:59;8.10;;;6.00;;
76795;SDS011;65745;50.278;18.192;2023-05-10T00:04:32;8.40;;;5.80;;
76795;SDS011;65745;50.278;18.192;2023-05-10T00:07:04;7.00;;;5.70;;
76795;SDS011;65745;50.278;18.192;2023-05-10T00:09:36;8.70;;;5.90;;
76795;SDS011;65745;50.278;18.192;2023-05-10T00:12:09;8.30;;;5.30;;
76795;SDS011;65745;50.278;18.192;2023-05-10T00:14:41;10.40;;;7.10;;
76795;SDS011;65745;50.278;18.192;2023-05-10T00:17:13;10.30;;;6.70;;
76795;SDS011;65745;50.278;18.192;2023-05-10T00:19:45;8.40;;;6.60;;
76795;SDS011;65745;50.278;18.192;2023-05-10T00:22:17;8.50;;;5.70;;
76795;SDS011;65745;50.278;18.192;2023-05-10T00:24:49;9.00;;;6.10;;
76795;SDS011;65745;50.278;18.192;2023-05-10T00:27:21;6.70;;;5.30;;
76795;SDS011;65745;50.278;18.192;2023-05-10T00:29:53;8.00;;;5.70;;
76795;SDS011;65745;50.278;18.192;2023-05-10T00:32:25;7.10;;;5.80;;
76795;SDS011;65745;50.278;18.192;2023-05-10T00:34:57;6.50;;;5.30;;
76795;SDS011;65745;50.278;18.192;2023-05-10T00:37:30;8.40;;;6.20;;
76795;SDS011;65745;50.278;18.192;2023-05-10T00:40:02;8.60;;;6.30;;
76795;SDS011;65745;50.278;18.192;2023-05-10T00:42:35;9.00;;;6.10;;
76795;SDS011;65745;50.278;18.192;2023-05-10T00:45:08;7.90;;;6.10;;
76795;SDS011;65745;50.278;18.192;2023-05-10T00:47:41;7.80;;;6.10;;
76795;SDS011;65745;50.278;18.192;2023-05-10T00:50:14;7.30;;;5.90;;
76795;SDS011;65745;50.278;18.192;2023-05-10T00:52:47;8.30;;;6.20;;
76795;SDS011;65745;50.278;18.192;2023-05-10T00:55:20;6.90;;;5.60;;
76795;SDS011;65745;50.278;18.192;2023-05-10T00:57:52;9.00;;;6.80;;
76795;SDS011;65745;50.278;18.192;2023-05-10T01:00:25;7.50;;;6.10;;
76795;SDS011;65745;50.278;18.192;2023-05-10T01:02:58;8.80;;;6.10;;
76795;SDS011;65745;50.278;18.192;2023-05-10T01:05:31;7.70;;;6.20;;
76795;SDS011;65745;50.278;18.192;2023-05-10T01:08:03;7.10;;;5.70;;
76795;SDS011;65745;50.278;18.192;2023-05-10T01:10:36;9.90;;;6.50;;
76795;SDS011;65745;50.278;18.192;2023-05-10T01:13:09;7.20;;;5.40;;
76795;SDS011;65745;50.278;18.192;2023-05-10T01:15:42;8.00;;;6.10;;
76795;SDS011;65745;50.278;18.192;2023-05-10T01:18:17;9.60;;;6.30;;
76795;SDS011;65745;50.278;18.192;2023-05-10T01:20:54;8.70;;;6.80;;
76795;SDS011;65745;50.278;18.192;2023-05-10T01:23:42;8.40;;;5.60;;
76795;SDS011;65745;50.278;18.192;2023-05-10T01:26:26;10.00;;;6.80;;
76795;SDS011;65745;50.278;18.192;2023-05-10T01:29:18;10.00;;;6.10;;
76795;SDS011;65745;50.278;18.192;2023-05-10T01:32:19;5.90;;;5.00;;
76795;SDS011;65745;50.278;18.192;2023-05-10T01:34:57;7.80;;;5.90;;
76795;SDS011;65745;50.278;18.192;2023-05-10T01:37:36;9.50;;;6.50;;
76795;SDS011;65745;50.278;18.192;2023-05-10T01:40:15;8.60;;;6.40;;
76795;SDS011;65745;50.278;18.192;2023-05-10T01:42:51;10.20;;;6.70;;
76795;SDS011;65745;50.278;18.192;2023-05-10T01:45:32;8.90;;;6.20;;
76795;SDS011;65745;50.278;18.192;2023-05-10T01:48:09;8.90;;;5.80;;
76795;SDS011;65745;50.278;18.192;2023-05-10T01:50:44;6.30;;;4.90;;
76795;SDS011;65745;50.278;18.192;2023-05-10T01:53:18;7.70;;;6.30;;
76795;SDS011;65745;50.278;18.192;2023-05-10T01:55:53;11.40;;;6.50;;
76795;SDS011;65745;50.278;18.192;2023-05-10T01:58:27;9.60;;;6.50;;
76795;SDS011;65745;50.278;18.192;2023-05-10T02:01:03;6.60;;;5.10;;
76795;SDS011;65745;50.278;18.192;2023-05-10T02:03:36;8.10;;;5.90;;
76795;SDS011;65745;50.278;18.192;2023-05-10T02:06:11;6.70;;;5.10;;
76795;SDS011;65745;50.278;18.192;2023-05-10T02:08:46;9.10;;;6.80;;
76795;SDS011;65745;50.278;18.192;2023-05-10T02:11:22;9.40;;;7.60;;
76795;SDS011;65745;50.278;18.192;2023-05-10T02:13:55;9.90;;;6.90;;
76795;SDS011;65745;50.278;18.192;2023-05-10T02:16:29;7.60;;;5.90;;
76795;SDS011;65745;50.278;18.192;2023-05-10T02:19:02;8.00;;;5.80;;
76795;SDS011;65745;50.278;18.192;2023-05-10T02:21:35;8.20;;;6.10;;
76795;SDS011;65745;50.278;18.192;2023-05-10T02:24:09;7.10;;;5.70;;
76795;SDS011;65745;50.278;18.192;2023-05-10T02:26:43;8.50;;;6.20;;
76795;SDS011;65745;50.278;18.192;2023-05-10T02:29:18;9.40;;;6.90;;
76795;SDS011;65745;50.278;18.192;2023-05-10T02:31:52;9.80;;;7.10;;
76795;SDS011;65745;50.278;18.192;2023-05-10T02:34:26;8.80;;;6.80;;
76795;SDS011;65745;50.278;18.192;2023-05-10T02:37:00;9.40;;;6.90;;
76795;SDS011;65745;50.278;18.192;2023-05-10T02:39:34;8.80;;;6.60;;
76795;SDS011;65745;50.278;18.192;2023-05-10T02:42:09;9.20;;;7.20;;
76795;SDS011;65745;50.278;18.192;2023-05-10T02:44:44;13.60;;;7.20;;
76795;SDS011;65745;50.278;18.192;2023-05-10T02:47:18;9.10;;;6.80;;
76795;SDS011;65745;50.278;18.192;2023-05-10T02:49:51;10.00;;;7.10;;
76795;SDS011;65745;50.278;18.192;2023-05-10T02:52:25;9.30;;;7.20;;
76795;SDS011;65745;50.278;18.192;2023-05-10T02:55:00;10.90;;;7.50;;
76795;SDS011;65745;50.278;18.192;2023-05-10T02:57:35;10.30;;;7.10;;
76795;SDS011;65745;50.278;18.192;2023-05-10T03:00:12;8.10;;;6.40;;
76795;SDS011;65745;50.278;18.192;2023-05-10T03:02:45;8.10;;;7.30;;
76795;SDS011;65745;50.278;18.192;2023-05-10T03:05:18;9.40;;;6.70;;
76795;SDS011;65745;50.278;18.192;2023-05-10T03:07:50;7.00;;;6.20;;
76795;SDS011;65745;50.278;18.192;2023-05-10T03:10:23;9.80;;;6.60;;
76795;SDS011;65745;50.278;18.192;2023-05-10T03:15:40;9.50;;;7.10;;
76795;SDS011;65745;50.278;18.192;2023-05-10T03:18:19;9.50;;;7.70;;
76795;SDS011;65745;50.278;18.192;2023-05-10T03:20:57;7.30;;;6.20;;
76795;SDS011;65745;50.278;18.192;2023-05-10T03:23:34;11.00;;;7.40;;
76795;SDS011;65745;50.278;18.192;2023-05-10T03:26:10;9.20;;;6.60;;
76795;SDS011;65745;50.278;18.192;2023-05-10T03:28:47;10.90;;;7.30;;
76795;SDS011;65745;50.278;18.192;2023-05-10T03:31:20;8.10;;;6.60;;
76795;SDS011;65745;50.278;18.192;2023-05-10T03:33:53;9.20;;;6.70;;
76795;SDS011;65745;50.278;18.192;2023-05-10T03:36:27;9.70;;;7.10;;
76795;SDS011;65745;50.278;18.192;2023-05-10T03:39:00;9.30;;;6.80;;
76795;SDS011;65745;50.278;18.192;2023-05-10T03:41:32;8.70;;;7.10;;
76795;SDS011;65745;50.278;18.192;2023-05-10T03:44:05;9.10;;;7.50;;
76795;SDS011;65745;50.278;18.192;2023-05-10T03:46:37;10.70;;;7.90;;
76795;SDS011;65745;50.278;18.192;2023-05-10T03:49:10;8.30;;;6.70;;
76795;SDS011;65745;50.278;18.192;2023-05-10T03:51:42;9.10;;;7.50;;
76795;SDS011;65745;50.278;18.192;2023-05-10T03:54:14;11.50;;;7.30;;
76795;SDS011;65745;50.278;18.192;2023-05-10T03:56:47;11.30;;;8.00;;
76795;SDS011;65745;50.278;18.192;2023-05-10T03:59:20;12.00;;;7.70;;
76795;SDS011;65745;50.278;18.192;2023-05-10T04:01:53;12.20;;;8.20;;
76795;SDS011;65745;50.278;18.192;2023-05-10T04:04:25;8.80;;;7.10;;
76795;SDS011;65745;50.278;18.192;2023-05-10T04:06:59;12.00;;;8.10;;
76795;SDS011;65745;50.278;18.192;2023-05-10T04:09:32;11.70;;;8.10;;
76795;SDS011;65745;50.278;18.192;2023-05-10T04:12:04;24.20;;;16.60;;
76795;SDS011;65745;50.278;18.192;2023-05-10T04:14:39;82.70;;;52.30;;
76795;SDS011;65745;50.278;18.192;2023-05-10T04:17:11;60.30;;;40.50;;
76795;SDS011;65745;50.278;18.192;2023-05-10T04:19:43;42.20;;;28.90;;
76795;SDS011;65745;50.278;18.192;2023-05-10T04:22:15;23.70;;;15.30;;
76795;SDS011;65745;50.278;18.192;2023-05-10T04:24:47;24.70;;;14.30;;
76795;SDS011;65745;50.278;18.192;2023-05-10T04:27:19;29.20;;;15.60;;
76795;SDS011;65745;50.278;18.192;2023-05-10T04:29:51;28.90;;;14.70;;
76795;SDS011;65745;50.278;18.192;2023-05-10T04:32:24;29.00;;;17.80;;
76795;SDS011;65745;50.278;18.192;2023-05-10T04:34:56;22.80;;;14.70;;
76795;SDS011;65745;50.278;18.192;2023-05-10T04:37:28;19.10;;;12.60;;
76795;SDS011;65745;50.278;18.192;2023-05-10T04:40:00;18.00;;;11.20;;
76795;SDS011;65745;50.278;18.192;2023-05-10T04:42:33;15.60;;;11.40;;
76795;SDS011;65745;50.278;18.192;2023-05-10T04:45:06;12.10;;;9.20;;
76795;SDS011;65745;50.278;18.192;2023-05-10T04:47:40;14.90;;;9.50;;
76795;SDS011;65745;50.278;18.192;2023-05-10T04:50:12;12.20;;;8.90;;
76795;SDS011;65745;50.278;18.192;2023-05-10T04:52:44;11.10;;;7.10;;
76795;SDS011;65745;50.278;18.192;2023-05-10T04:55:17;11.60;;;8.80;;
76795;SDS011;65745;50.278;18.192;2023-05-10T04:57:49;11.30;;;7.70;;
76795;SDS011;65745;50.278;18.192;2023-05-10T05:00:21;10.50;;;8.10;;
76795;SDS011;65745;50.278;18.192;2023-05-10T05:02:53;8.10;;;6.70;;
76795;SDS011;65745;50.278;18.192;2023-05-10T05:05:26;9.70;;;6.50;;
76795;SDS011;65745;50.278;18.192;2023-05-10T05:07:58;6.60;;;5.60;;
76795;SDS011;65745;50.278;18.192;2023-05-10T05:10:31;9.10;;;6.20;;
76795;SDS011;65745;50.278;18.192;2023-05-10T05:13:03;7.70;;;6.40;;
76795;SDS011;65745;50.278;18.192;2023-05-10T05:15:35;8.40;;;6.50;;
76795;SDS011;65745;50.278;18.192;2023-05-10T05:18:08;7.60;;;5.70;;
76795;SDS011;65745;50.278;18.192;2023-05-10T05:20:40;10.10;;;6.30;;
76795;SDS011;65745;50.278;18.192;2023-05-10T05:23:12;9.50;;;7.30;;
76795;SDS011;65745;50.278;18.192;2023-05-10T05:25:44;8.20;;;6.60;;
76795;SDS011;65745;50.278;18.192;2023-05-10T05:28:17;7.10;;;5.20;;
76795;SDS011;65745;50.278;18.192;2023-05-10T05:30:50;6.20;;;5.50;;
76795;SDS011;65745;50.278;18.192;2023-05-10T05:33:25;8.50;;;6.30;;
76795;SDS011;65745;50.278;18.192;2023-05-10T05:35:59;7.50;;;5.70;;
76795;SDS011;65745;50.278;18.192;2023-05-10T05:38:32;6.40;;;5.00;;
76795;SDS011;65745;50.278;18.192;2023-05-10T05:41:05;7.10;;;6.30;;
76795;SDS011;65745;50.278;18.192;2023-05-10T05:43:41;7.30;;;5.90;;
76795;SDS011;65745;50.278;18.192;2023-05-10T05:46:14;8.20;;;5.60;;
76795;SDS011;65745;50.278;18.192;2023-05-10T05:48:46;9.40;;;6.60;;
76795;SDS011;65745;50.278;18.192;2023-05-10T05:51:19;7.70;;;6.30;;
76795;SDS011;65745;50.278;18.192;2023-05-10T05:53:52;7.90;;;5.70;;
76795;SDS011;65745;50.278;18.192;2023-05-10T05:56:27;7.50;;;5.00;;
76795;SDS011;65745;50.278;18.192;2023-05-10T05:58:59;6.70;;;6.00;;
76795;SDS011;65745;50.278;18.192;2023-05-10T06:01:33;6.10;;;5.40;;
76795;SDS011;65745;50.278;18.192;2023-05-10T06:04:09;6.10;;;4.50;;
76795;SDS011;65745;50.278;18.192;2023-05-10T06:06:42;8.90;;;5.70;;
76795;SDS011;65745;50.278;18.192;2023-05-10T06:09:16;5.80;;;5.10;;
76795;SDS011;65745;50.278;18.192;2023-05-10T06:11:49;6.40;;;5.10;;
76795;SDS011;65745;50.278;18.192;2023-05-10T06:14:21;5.90;;;5.30;;
76795;SDS011;65745;50.278;18.192;2023-05-10T06:16:53;6.70;;;4.70;;
76795;SDS011;65745;50.278;18.192;2023-05-10T06:19:26;9.00;;;4.90;;
76795;SDS011;65745;50.278;18.192;2023-05-10T06:21:58;6.50;;;5.40;;
76795;SDS011;65745;50.278;18.192;2023-05-10T06:24:31;5.70;;;4.70;;
76795;SDS011;65745;50.278;18.192;2023-05-10T06:27:03;9.10;;;6.70;;
76795;SDS011;65745;50.278;18.192;2023-05-10T06:29:36;8.80;;;5.40;;
76795;SDS011;65745;50.278;18.192;2023-05-10T06:32:08;5.30;;;4.50;;
76795;SDS011;65745;50.278;18.192;2023-05-10T06:34:41;7.80;;;5.20;;
76795;SDS011;65745;50.278;18.192;2023-05-10T06:37:13;7.10;;;5.20;;
76795;SDS011;65745;50.278;18.192;2023-05-10T06:39:46;6.30;;;4.90;;
76795;SDS011;65745;50.278;18.192;2023-05-10T06:42:18;5.90;;;4.60;;
76795;SDS011;65745;50.278;18.192;2023-05-10T06:44:50;5.90;;;4.30;;
76795;SDS011;65745;50.278;18.192;2023-05-10T06:47:22;5.40;;;4.20;;
76795;SDS011;65745;50.278;18.192;2023-05-10T06:49:55;5.60;;;4.70;;
76795;SDS011;65745;50.278;18.192;2023-05-10T06:52:27;8.90;;;5.20;;
76795;SDS011;65745;50.278;18.192;2023-05-10T06:54:59;4.70;;;4.10;;
76795;SDS011;65745;50.278;18.192;2023-05-10T06:57:32;5.50;;;4.50;;
76795;SDS011;65745;50.278;18.192;2023-05-10T07:00:06;4.70;;;3.80;;
76795;SDS011;65745;50.278;18.192;2023-05-10T07:02:39;7.50;;;4.90;;
76795;SDS011;65745;50.278;18.192;2023-05-10T07:05:12;6.90;;;5.00;;
76795;SDS011;65745;50.278;18.192;2023-05-10T07:07:45;7.20;;;4.80;;
76795;SDS011;65745;50.278;18.192;2023-05-10T07:10:18;11.50;;;4.90;;
76795;SDS011;65745;50.278;18.192;2023-05-10T07:12:50;7.70;;;4.90;;
76795;SDS011;65745;50.278;18.192;2023-05-10T07:15:23;6.10;;;4.60;;
76795;SDS011;65745;50.278;18.192;2023-05-10T07:17:55;5.00;;;4.50;;
76795;SDS011;65745;50.278;18.192;2023-05-10T07:20:27;6.70;;;4.60;;
76795;SDS011;65745;50.278;18.192;2023-05-10T07:23:00;6.30;;;4.20;;
76795;SDS011;65745;50.278;18.192;2023-05-10T07:25:32;6.80;;;4.00;;
76795;SDS011;65745;50.278;18.192;2023-05-10T07:28:04;5.20;;;3.50;;
76795;SDS011;65745;50.278;18.192;2023-05-10T07:30:36;4.50;;;4.00;;
76795;SDS011;65745;50.278;18.192;2023-05-10T07:33:09;5.40;;;3.90;;
76795;SDS011;65745;50.278;18.192;2023-05-10T07:35:43;4.70;;;4.00;;
76795;SDS011;65745;50.278;18.192;2023-05-10T07:38:16;5.60;;;4.20;;
76795;SDS011;65745;50.278;18.192;2023-05-10T07:40:48;5.20;;;3.50;;
76795;SDS011;65745;50.278;18.192;2023-05-10T07:43:20;6.20;;;4.70;;
76795;SDS011;65745;50.278;18.192;2023-05-10T07:45:52;5.50;;;4.30;;
76795;SDS011;65745;50.278;18.192;2023-05-10T07:48:27;5.20;;;4.00;;
76795;SDS011;65745;50.278;18.192;2023-05-10T07:50:59;7.10;;;5.00;;
76795;SDS011;65745;50.278;18.192;2023-05-10T07:53:31;4.80;;;3.70;;
76795;SDS011;65745;50.278;18.192;2023-05-10T07:56:20;5.70;;;3.70;;
76795;SDS011;65745;50.278;18.192;2023-05-10T07:58:56;5.90;;;3.70;;
76795;SDS011;65745;50.278;18.192;2023-05-10T08:01:30;4.40;;;3.60;;
76795;SDS011;65745;50.278;18.192;2023-05-10T08:04:04;5.80;;;4.40;;
76795;SDS011;65745;50.278;18.192;2023-05-10T08:06:36;4.70;;;4.10;;
76795;SDS011;65745;50.278;18.192;2023-05-10T08:09:09;4.40;;;4.00;;
76795;SDS011;65745;50.278;18.192;2023-05-10T08:11:42;5.00;;;3.70;;
76795;SDS011;65745;50.278;18.192;2023-05-10T08:14:14;6.30;;;4.30;;
76795;SDS011;65745;50.278;18.192;2023-05-10T08:16:46;5.00;;;4.50;;
76795;SDS011;65745;50.278;18.192;2023-05-10T08:19:18;4.80;;;4.20;;
76795;SDS011;65745;50.278;18.192;2023-05-10T08:21:51;4.60;;;3.60;;
76795;SDS011;65745;50.278;18.192;2023-05-10T08:24:24;7.30;;;4.10;;
76795;SDS011;65745;50.278;18.192;2023-05-10T08:26:57;3.90;;;3.50;;
76795;SDS011;65745;50.278;18.192;2023-05-10T08:29:29;4.70;;;3.60;;
76795;SDS011;65745;50.278;18.192;2023-05-10T08:32:18;4.80;;;3.80;;
76795;SDS011;65745;50.278;18.192;2023-05-10T08:34:50;6.60;;;3.90;;
76795;SDS011;65745;50.278;18.192;2023-05-10T08:37:22;4.40;;;3.60;;
76795;SDS011;65745;50.278;18.192;2023-05-10T08:39:54;4.80;;;3.90;;
76795;SDS011;65745;50.278;18.192;2023-05-10T08:42:28;4.80;;;3.90;;
76795;SDS011;65745;50.278;18.192;2023-05-10T08:45:06;7.40;;;3.70;;
76795;SDS011;65745;50.278;18.192;2023-05-10T08:47:40;4.00;;;3.60;;
76795;SDS011;65745;50.278;18.192;2023-05-10T08:50:13;5.00;;;4.00;;
76795;SDS011;65745;50.278;18.192;2023-05-10T08:52:47;4.70;;;3.30;;
76795;SDS011;65745;50.278;18.192;2023-05-10T08:55:23;4.80;;;4.30;;
76795;SDS011;65745;50.278;18.192;2023-05-10T08:57:56;6.60;;;3.60;;
76795;SDS011;65745;50.278;18.192;2023-05-10T09:00:28;5.00;;;4.50;;
76795;SDS011;65745;50.278;18.192;2023-05-10T09:03:01;5.50;;;4.10;;
76795;SDS011;65745;50.278;18.192;2023-05-10T09:05:34;4.70;;;3.50;;
76795;SDS011;65745;50.278;18.192;2023-05-10T09:08:07;5.20;;;4.10;;
76795;SDS011;65745;50.278;18.192;2023-05-10T09:10:42;4.80;;;3.60;;
76795;SDS011;65745;50.278;18.192;2023-05-10T09:13:16;5.20;;;4.10;;
76795;SDS011;65745;50.278;18.192;2023-05-10T09:15:49;5.30;;;4.30;;
76795;SDS011;65745;50.278;18.192;2023-05-10T09:18:24;4.30;;;3.30;;
76795;SDS011;65745;50.278;18.192;2023-05-10T09:20:57;5.40;;;3.40;;
76795;SDS011;65745;50.278;18.192;2023-05-10T09:23:29;3.60;;;3.20;;
76795;SDS011;65745;50.278;18.192;2023-05-10T09:26:04;4.80;;;3.40;;
76795;SDS011;65745;50.278;18.192;2023-05-10T09:28:50;4.00;;;3.30;;
76795;SDS011;65745;50.278;18.192;2023-05-10T09:31:25;4.00;;;3.60;;
76795;SDS011;65745;50.278;18.192;2023-05-10T09:34:17;4.30;;;3.30;;
76795;SDS011;65745;50.278;18.192;2023-05-10T09:36:54;3.90;;;2.60;;
76795;SDS011;65745;50.278;18.192;2023-05-10T09:39:33;3.60;;;3.20;;
76795;SDS011;65745;50.278;18.192;2023-05-10T09:42:07;5.40;;;4.70;;
76795;SDS011;65745;50.278;18.192;2023-05-10T09:44:40;5.60;;;4.10;;
76795;SDS011;65745;50.278;18.192;2023-05-10T09:47:12;7.10;;;3.30;;
76795;SDS011;65745;50.278;18.192;2023-05-10T09:49:50;7.10;;;3.70;;
76795;SDS011;65745;50.278;18.192;2023-05-10T09:52:25;4.80;;;3.00;;
76795;SDS011;65745;50.278;18.192;2023-05-10T09:54:57;4.40;;;3.50;;
76795;SDS011;65745;50.278;18.192;2023-05-10T09:57:29;6.40;;;4.20;;
76795;SDS011;65745;50.278;18.192;2023-05-10T10:00:03;4.40;;;3.30;;
76795;SDS011;65745;50.278;18.192;2023-05-10T10:02:43;4.30;;;3.50;;
76795;SDS011;65745;50.278;18.192;2023-05-10T10:05:17;5.60;;;3.20;;
76795;SDS011;65745;50.278;18.192;2023-05-10T10:07:50;3.10;;;2.70;;
76795;SDS011;65745;50.278;18.192;2023-05-10T10:10:23;5.00;;;3.60;;
76795;SDS011;65745;50.278;18.192;2023-05-10T10:12:56;4.00;;;3.50;;
76795;SDS011;65745;50.278;18.192;2023-05-10T10:15:28;4.20;;;3.20;;
76795;SDS011;65745;50.278;18.192;2023-05-10T10:18:01;5.10;;;3.60;;
76795;SDS011;65745;50.278;18.192;2023-05-10T10:20:36;4.20;;;3.10;;
76795;SDS011;65745;50.278;18.192;2023-05-10T10:23:09;3.50;;;3.10;;
76795;SDS011;65745;50.278;18.192;2023-05-10T10:25:45;3.60;;;3.20;;
76795;SDS011;65745;50.278;18.192;2023-05-10T10:28:22;4.20;;;3.40;;
76795;SDS011;65745;50.278;18.192;2023-05-10T10:31:02;3.80;;;3.40;;
76795;SDS011;65745;50.278;18.192;2023-05-10T10:33:59;4.90;;;3.40;;
76795;SDS011;65745;50.278;18.192;2023-05-10T10:36:42;4.40;;;3.20;;
76795;SDS011;65745;50.278;18.192;2023-05-10T10:39:17;6.90;;;3.40;;
76795;SDS011;65745;50.278;18.192;2023-05-10T10:41:51;5.60;;;3.10;;
76795;SDS011;65745;50.278;18.192;2023-05-10T10:47:27;4.00;;;3.60;;
76795;SDS011;65745;50.278;18.192;2023-05-10T10:50:06;4.50;;;3.30;;
76795;SDS011;65745;50.278;18.192;2023-05-10T10:52:42;4.30;;;3.00;;
76795;SDS011;65745;50.278;18.192;2023-05-10T10:55:19;4.50;;;3.00;;
76795;SDS011;65745;50.278;18.192;2023-05-10T10:57:54;4.40;;;3.20;;
76795;SDS011;65745;50.278;18.192;2023-05-10T11:00:31;3.20;;;2.50;;
76795;SDS011;65745;50.278;18.192;2023-05-10T11:03:06;5.20;;;3.30;;
76795;SDS011;65745;50.278;18.192;2023-05-10T11:05:43;3.90;;;3.10;;
76795;SDS011;65745;50.278;18.192;2023-05-10T11:08:16;4.80;;;3.20;;
76795;SDS011;65745;50.278;18.192;2023-05-10T11:11:05;3.30;;;2.80;;
76795;SDS011;65745;50.278;18.192;2023-05-10T11:13:41;3.60;;;3.20;;
76795;SDS011;65745;50.278;18.192;2023-05-10T11:16:19;5.30;;;3.00;;
76795;SDS011;65745;50.278;18.192;2023-05-10T11:18:53;3.50;;;3.00;;
76795;SDS011;65745;50.278;18.192;2023-05-10T11:21:31;3.50;;;2.90;;
76795;SDS011;65745;50.278;18.192;2023-05-10T11:24:09;5.10;;;3.00;;
76795;SDS011;65745;50.278;18.192;2023-05-10T11:26:45;3.30;;;3.00;;
76795;SDS011;65745;50.278;18.192;2023-05-10T11:29:19;4.40;;;2.90;;
76795;SDS011;65745;50.278;18.192;2023-05-10T11:31:52;3.90;;;3.00;;
76795;SDS011;65745;50.278;18.192;2023-05-10T11:34:27;4.60;;;3.10;;
76795;SDS011;65745;50.278;18.192;2023-05-10T11:37:03;4.10;;;2.90;;
76795;SDS011;65745;50.278;18.192;2023-05-10T11:39:35;3.00;;;2.70;;
76795;SDS011;65745;50.278;18.192;2023-05-10T11:42:07;4.30;;;3.00;;
76795;SDS011;65745;50.278;18.192;2023-05-10T11:44:40;3.50;;;3.20;;
76795;SDS011;65745;50.278;18.192;2023-05-10T11:47:15;4.20;;;3.50;;
76795;SDS011;65745;50.278;18.192;2023-05-10T11:49:48;3.90;;;3.00;;
76795;SDS011;65745;50.278;18.192;2023-05-10T11:52:20;4.40;;;3.20;;
76795;SDS011;65745;50.278;18.192;2023-05-10T11:54:52;3.30;;;2.80;;
76795;SDS011;65745;50.278;18.192;2023-05-10T11:57:27;3.20;;;2.90;;
76795;SDS011;65745;50.278;18.192;2023-05-10T12:00:00;3.10;;;2.70;;
76795;SDS011;65745;50.278;18.192;2023-05-10T12:02:35;3.80;;;3.10;;
76795;SDS011;65745;50.278;18.192;2023-05-10T12:05:08;3.30;;;2.90;;
76795;SDS011;65745;50.278;18.192;2023-05-10T12:07:41;3.80;;;2.90;;
76795;SDS011;65745;50.278;18.192;2023-05-10T12:10:13;3.50;;;3.00;;
76795;SDS011;65745;50.278;18.192;2023-05-10T12:12:47;4.30;;;3.10;;
76795;SDS011;65745;50.278;18.192;2023-05-10T12:15:23;4.20;;;3.30;;
76795;SDS011;65745;50.278;18.192;2023-05-10T12:17:57;3.50;;;3.00;;
76795;SDS011;65745;50.278;18.192;2023-05-10T12:20:35;3.50;;;2.60;;
76795;SDS011;65745;50.278;18.192;2023-05-10T12:23:09;5.00;;;3.40;;
76795;SDS011;65745;50.278;18.192;2023-05-10T12:25:43;3.20;;;2.90;;
76795;SDS011;65745;50.278;18.192;2023-05-10T12:28:18;4.50;;;3.40;;
76795;SDS011;65745;50.278;18.192;2023-05-10T12:30:52;4.50;;;2.90;;
76795;SDS011;65745;50.278;18.192;2023-05-10T12:33:25;4.60;;;3.00;;
76795;SDS011;65745;50.278;18.192;2023-05-10T12:35:58;3.70;;;2.90;;
76795;SDS011;65745;50.278;18.192;2023-05-10T12:38:31;4.00;;;2.90;;
76795;SDS011;65745;50.278;18.192;2023-05-10T12:41:06;5.00;;;3.20;;
76795;SDS011;65745;50.278;18.192;2023-05-10T12:43:39;5.40;;;3.20;;
76795;SDS011;65745;50.278;18.192;2023-05-10T12:46:12;4.00;;;3.00;;
76795;SDS011;65745;50.278;18.192;2023-05-10T12:48:46;4.00;;;3.20;;
76795;SDS011;65745;50.278;18.192;2023-05-10T12:51:37;3.50;;;3.00;;
76795;SDS011;65745;50.278;18.192;2023-05-10T12:54:09;3.80;;;3.30;;
76795;SDS011;65745;50.278;18.192;2023-05-10T12:56:41;4.00;;;3.10;;
76795;SDS011;65745;50.278;18.192;2023-05-10T12:59:13;5.40;;;3.50;;
76795;SDS011;65745;50.278;18.192;2023-05-10T13:01:45;4.20;;;3.20;;
76795;SDS011;65745;50.278;18.192;2023-05-10T13:04:17;4.00;;;3.20;;
76795;SDS011;65745;50.278;18.192;2023-05-10T13:06:50;5.00;;;3.40;;
76795;SDS011;65745;50.278;18.192;2023-05-10T13:09:24;3.40;;;2.80;;
76795;SDS011;65745;50.278;18.192;2023-05-10T13:11:58;4.60;;;3.30;;
76795;SDS011;65745;50.278;18.192;2023-05-10T13:14:31;4.30;;;3.30;;
76795;SDS011;65745;50.278;18.192;2023-05-10T13:17:03;3.80;;;3.40;;
76795;SDS011;65745;50.278;18.192;2023-05-10T13:19:36;4.00;;;3.20;;
76795;SDS011;65745;50.278;18.192;2023-05-10T13:22:11;3.80;;;2.90;;
76795;SDS011;65745;50.278;18.192;2023-05-10T13:24:53;3.60;;;3.20;;
76795;SDS011;65745;50.278;18.192;2023-05-10T13:27:25;3.50;;;3.20;;
76795;SDS011;65745;50.278;18.192;2023-05-10T13:29:58;5.40;;;3.30;;
76795;SDS011;65745;50.278;18.192;2023-05-10T13:32:32;4.80;;;3.30;;
76795;SDS011;65745;50.278;18.192;2023-05-10T13:35:06;4.00;;;2.90;;
76795;SDS011;65745;50.278;18.192;2023-05-10T13:37:39;5.00;;;3.20;;
76795;SDS011;65745;50.278;18.192;2023-05-10T13:40:11;4.60;;;3.20;;
76795;SDS011;65745;50.278;18.192;2023-05-10T13:42:45;4.60;;;3.30;;
76795;SDS011;65745;50.278;18.192;2023-05-10T13:45:17;3.70;;;3.10;;
76795;SDS011;65745;50.278;18.192;2023-05-10T13:47:50;3.80;;;2.80;;
76795;SDS011;65745;50.278;18.192;2023-05-10T13:50:22;3.70;;;3.20;;
76795;SDS011;65745;50.278;18.192;2023-05-10T13:52:54;3.40;;;3.00;;
76795;SDS011;65745;50.278;18.192;2023-05-10T13:55:27;5.30;;;3.00;;
76795;SDS011;65745;50.278;18.192;2023-05-10T13:57:59;5.80;;;3.10;;
76795;SDS011;65745;50.278;18.192;2023-05-10T14:00:32;3.80;;;2.80;;
76795;SDS011;65745;50.278;18.192;2023-05-10T14:03:04;3.10;;;2.70;;
76795;SDS011;65745;50.278;18.192;2023-05-10T14:05:38;4.00;;;2.70;;
76795;SDS011;65745;50.278;18.192;2023-05-10T14:08:10;4.40;;;2.90;;
76795;SDS011;65745;50.278;18.192;2023-05-10T14:10:43;3.30;;;3.00;;
76795;SDS011;65745;50.278;18.192;2023-05-10T14:13:15;3.50;;;3.10;;
76795;SDS011;65745;50.278;18.192;2023-05-10T14:15:48;3.50;;;3.10;;
76795;SDS011;65745;50.278;18.192;2023-05-10T14:18:20;4.20;;;3.00;;
76795;SDS011;65745;50.278;18.192;2023-05-10T14:20:52;4.10;;;3.10;;
76795;SDS011;65745;50.278;18.192;2023-05-10T14:23:25;4.50;;;2.70;;
76795;SDS011;65745;50.278;18.192;2023-05-10T14:25:58;3.10;;;2.70;;
76795;SDS011;65745;50.278;18.192;2023-05-10T14:28:31;3.60;;;2.70;;
76795;SDS011;65745;50.278;18.192;2023-05-10T14:31:05;4.30;;;2.60;;
76795;SDS011;65745;50.278;18.192;2023-05-10T14:33:37;4.60;;;2.70;;
76795;SDS011;65745;50.278;18.192;2023-05-10T14:36:10;2.80;;;2.50;;
76795;SDS011;65745;50.278;18.192;2023-05-10T14:38:43;3.50;;;2.80;;
76795;SDS011;65745;50.278;18.192;2023-05-10T14:41:16;3.00;;;2.70;;
76795;SDS011;65745;50.278;18.192;2023-05-10T14:43:48;3.30;;;2.50;;
76795;SDS011;65745;50.278;18.192;2023-05-10T14:46:21;2.50;;;2.30;;
76795;SDS011;65745;50.278;18.192;2023-05-10T14:48:53;4.20;;;2.40;;
76795;SDS011;65745;50.278;18.192;2023-05-10T14:51:25;3.40;;;2.60;;
76795;SDS011;65745;50.278;18.192;2023-05-10T14:53:58;3.40;;;2.30;;
76795;SDS011;65745;50.278;18.192;2023-05-10T14:56:31;4.50;;;2.40;;
76795;SDS011;65745;50.278;18.192;2023-05-10T14:59:03;2.90;;;2.40;;
76795;SDS011;65745;50.278;18.192;2023-05-10T15:01:36;4.00;;;2.70;;
76795;SDS011;65745;50.278;18.192;2023-05-10T15:04:12;8.40;;;4.90;;
76795;SDS011;65745;50.278;18.192;2023-05-10T15:06:46;5.90;;;3.40;;
76795;SDS011;65745;50.278;18.192;2023-05-10T15:09:18;6.20;;;2.50;;
76795;SDS011;65745;50.278;18.192;2023-05-10T15:11:51;2.80;;;2.20;;
76795;SDS011;65745;50.278;18.192;2023-05-10T15:14:23;3.80;;;2.60;;
76795;SDS011;65745;50.278;18.192;2023-05-10T15:16:56;4.50;;;2.70;;
76795;SDS011;65745;50.278;18.192;2023-05-10T15:19:30;3.30;;;2.50;;